createdAt,value
2022-09-25T09:18:56.874Z,100254.41
2022-09-25T09:21:51.321Z,100255.25
2022-09-25T09:24:26.870Z,100263.91
2022-09-25T09:27:03.571Z,100262.22
2022-09-25T09:29:36.482Z,100252.75
2022-09-25T09:32:21.938Z,100261.31
2022-09-25T09:35:07.002Z,100259.56
2022-09-25T09:37:58.478Z,100253.47
2022-09-25T09:40:54.032Z,100258.34
2022-09-25T09:43:38.705Z,100255.16
2022-09-25T09:46:21.396Z,100255.97
2022-09-25T09:49:16.495Z,100261.38
2022-09-25T09:51:52.862Z,100252.19
2022-09-25T09:54:35.986Z,100250.63
2022-09-25T09:57:11.027Z,100252.22
2022-09-25T09:59:46.210Z,100249.00
2022-09-25T10:02:40.839Z,100254.50
2022-09-25T10:05:24.590Z,100245.81
2022-09-25T10:07:52.078Z,100249.00
2022-09-25T10:10:19.821Z,100253.91
2022-09-25T10:12:50.987Z,100250.41
2022-09-25T10:15:33.745Z,100242.09
2022-09-25T10:18:03.064Z,100253.47
2022-09-25T10:20:39.783Z,100248.63
2022-09-25T10:23:22.311Z,100257.34
2022-09-25T10:25:52.454Z,100239.97
2022-09-25T10:28:27.528Z,100243.84
2022-09-25T10:30:54.732Z,100246.00
2022-09-25T10:33:27.150Z,100248.75
2022-09-25T10:35:54.915Z,100247.66
2022-09-25T10:38:34.545Z,100258.84
2022-09-25T10:41:12.187Z,100255.56
2022-09-25T10:43:56.041Z,100251.56
2022-09-25T10:46:52.167Z,100242.63
2022-09-25T10:49:42.997Z,100248.53
2022-09-25T10:52:11.951Z,100237.69
2022-09-25T10:54:43.870Z,100246.09
2022-09-25T10:57:23.227Z,100242.38
2022-09-25T10:59:51.479Z,100247.19
2022-09-25T11:02:48.408Z,100245.63
2022-09-25T11:05:19.967Z,100245.06
2022-09-25T11:07:55.322Z,100255.38
2022-09-25T11:10:37.033Z,100249.91
2022-09-25T11:13:09.387Z,100242.88
2022-09-25T11:15:39.124Z,100251.81
2022-09-25T11:18:09.044Z,100245.59
2022-09-25T11:20:36.805Z,100249.38
2022-09-25T11:23:21.935Z,100238.53
2022-09-25T11:26:06.177Z,100237.47
2022-09-25T11:29:04.563Z,100235.91
2022-09-25T11:31:42.766Z,100229.34
2022-09-25T11:34:19.298Z,100237.75
2022-09-25T11:37:00.418Z,100233.66
2022-09-25T11:39:57.629Z,100241.84
2022-09-25T11:42:49.230Z,100233.22
2022-09-25T11:45:24.562Z,100228.25
2022-09-25T11:48:05.375Z,100227.22
2022-09-25T11:50:47.582Z,100222.59
2022-09-25T11:53:14.322Z,100219.03
2022-09-25T11:55:47.048Z,100223.44
2022-09-25T11:58:33.246Z,100219.09
2022-09-25T12:01:06.187Z,100214.69
2022-09-25T12:03:42.078Z,100223.44
2022-09-25T12:06:28.794Z,100216.41
2022-09-25T12:09:19.853Z,100209.09
2022-09-25T12:11:59.010Z,100205.03
2022-09-25T12:14:31.762Z,100203.38
2022-09-25T12:17:17.810Z,100208.88
2022-09-25T12:20:13.227Z,100214.81
2022-09-25T12:23:14.291Z,100207.25
2022-09-25T12:25:48.063Z,100207.75
2022-09-25T12:28:29.377Z,100203.19
2022-09-25T12:30:57.100Z,100201.25
2022-09-25T12:33:28.056Z,100202.63
2022-09-25T12:36:04.204Z,100202.66
2022-09-25T12:38:55.446Z,100199.13
2022-09-25T12:41:41.406Z,100200.78
2022-09-25T12:44:26.582Z,100196.97
2022-09-25T12:47:02.918Z,100198.09
2022-09-25T12:49:40.840Z,100191.56
2022-09-25T12:52:12.968Z,100184.50
2022-09-25T12:55:07.382Z,100174.75
2022-09-25T12:57:48.299Z,100174.19
2022-09-25T13:00:21.079Z,100173.66
2022-09-25T13:02:54.566Z,100176.34
2022-09-25T13:05:34.770Z,100174.19
2022-09-25T13:08:24.422Z,100167.09
2022-09-25T13:11:02.181Z,100165.72
2022-09-25T13:13:36.369Z,100167.09
2022-09-25T13:16:03.310Z,100160.22
2022-09-25T13:18:31.233Z,100159.41
2022-09-25T13:21:32.571Z,100156.63
2022-09-25T13:24:00.239Z,100156.88
2022-09-25T13:26:27.803Z,100150.38
2022-09-25T13:29:23.860Z,100144.00
2022-09-25T13:31:53.544Z,100139.13
2022-09-25T13:34:23.039Z,100136.91
2022-09-25T13:36:54.152Z,100139.53
2022-09-25T13:40:00.938Z,100138.88
2022-09-25T13:42:40.036Z,100135.91
2022-09-25T13:45:33.986Z,100138.25
2022-09-25T13:48:26.365Z,100131.66
2022-09-25T13:51:18.526Z,100128.94
2022-09-25T13:53:56.540Z,100130.31
2022-09-25T13:56:25.716Z,100127.84
2022-09-25T13:59:19.395Z,100128.34
2022-09-25T14:01:49.178Z,100118.03
2022-09-25T14:04:15.648Z,100119.13
2022-09-25T14:06:43.132Z,100110.13
2022-09-25T14:09:12.761Z,100108.44
2022-09-25T14:11:42.592Z,100107.91
2022-09-25T14:14:22.660Z,100110.28
2022-09-25T14:16:52.236Z,100108.41
2022-09-25T14:19:26.996Z,100097.72
2022-09-25T14:21:54.004Z,100101.03
2022-09-25T14:24:21.839Z,100098.56
2022-09-25T14:26:51.345Z,100099.91
2022-09-25T14:29:22.915Z,100090.03
2022-09-25T14:32:50.353Z,100088.31
2022-09-25T14:35:25.081Z,100081.69
2022-09-25T14:38:19.419Z,100079.75
2022-09-25T14:41:31.232Z,100078.94
2022-09-25T14:44:17.750Z,100081.69
2022-09-25T14:46:48.920Z,100079.03
2022-09-25T14:49:26.669Z,100076.84
2022-09-25T14:51:57.779Z,100071.44
2022-09-25T14:54:29.299Z,100073.66
2022-09-25T14:56:58.485Z,100075.53
2022-09-25T14:59:39.745Z,100068.94
2022-09-25T15:02:20.156Z,100077.41
2022-09-25T15:04:46.826Z,100069.03
2022-09-25T15:07:17.317Z,100069.84
2022-09-25T15:09:49.343Z,100070.41
2022-09-25T15:12:30.985Z,100070.09
2022-09-25T15:15:10.201Z,100067.13
2022-09-25T15:20:15.517Z,100060.69
2022-09-25T15:22:47.167Z,100063.97
2022-09-25T15:25:26.443Z,100064.50
2022-09-25T15:27:53.766Z,100062.97
2022-09-25T15:30:20.718Z,100074.44
2022-09-25T15:32:51.858Z,100069.56
2022-09-25T15:35:24.881Z,100069.00
2022-09-25T15:38:10.722Z,100069.56
2022-09-25T15:40:38.134Z,100070.47
2022-09-25T15:43:13.197Z,100073.19
2022-09-25T15:45:55.301Z,100065.31
2022-09-25T15:48:29.301Z,100068.16
2022-09-25T15:50:57.649Z,100070.66
2022-09-25T15:53:30.543Z,100065.78
2022-09-25T15:56:14.133Z,100066.06
2022-09-25T15:58:51.626Z,100066.91
2022-09-25T16:01:42.561Z,100060.72
2022-09-25T16:04:36.546Z,100070.03
2022-09-25T16:07:24.318Z,100066.16
2022-09-25T16:09:54.175Z,100051.56
2022-09-25T16:12:42.046Z,100058.38
2022-09-25T16:15:26.729Z,100054.28
2022-09-25T16:18:05.424Z,100052.16
2022-09-25T16:20:35.948Z,100058.69
2022-09-25T16:23:05.797Z,100054.91
2022-09-25T16:25:38.078Z,100054.91
2022-09-25T16:28:16.823Z,100059.28
2022-09-25T16:31:00.869Z,100052.19
2022-09-25T16:33:33.784Z,100053.91
2022-09-25T16:36:18.792Z,100057.72
2022-09-25T16:39:13.215Z,100052.50
2022-09-25T16:41:48.676Z,100056.38
2022-09-25T16:44:19.605Z,100063.75
2022-09-25T16:46:52.348Z,100059.69
2022-09-25T16:49:20.049Z,100058.91
2022-09-25T16:51:48.377Z,100064.06
2022-09-25T16:54:17.395Z,100068.44
2022-09-25T16:56:46.001Z,100058.94
2022-09-25T16:59:24.451Z,100064.06
2022-09-25T17:01:53.353Z,100064.66
2022-09-25T17:04:23.896Z,100063.03
2022-09-25T17:06:50.692Z,100061.66
2022-09-25T17:09:18.249Z,100063.88
2022-09-25T17:11:47.799Z,100058.44
2022-09-25T17:14:25.608Z,100058.94
2022-09-25T17:16:54.638Z,100056.78
2022-09-25T17:19:21.996Z,100059.78
2022-09-25T17:21:51.456Z,100057.06
2022-09-25T17:24:20.371Z,100066.03
2022-09-25T17:26:47.400Z,100066.31
2022-09-25T17:29:14.092Z,100062.78
2022-09-25T17:31:40.834Z,100065.50
2022-09-25T17:34:30.160Z,100066.59
2022-09-25T17:36:57.943Z,100069.59
2022-09-25T17:39:24.508Z,100062.22
2022-09-25T17:41:50.970Z,100062.69
2022-09-25T17:44:19.367Z,100064.09
2022-09-25T17:46:46.020Z,100064.66
2022-09-25T17:49:12.776Z,100068.22
2022-09-25T17:51:40.060Z,100065.75
2022-09-25T17:54:06.679Z,100069.84
2022-09-25T17:56:37.776Z,100069.28
2022-09-25T17:59:05.672Z,100067.66
2022-09-25T18:01:38.367Z,100072.56
2022-09-25T18:04:25.588Z,100058.44
2022-09-25T18:06:52.236Z,100065.75
2022-09-25T18:09:19.494Z,100065.50
2022-09-25T18:11:46.071Z,100068.75
2022-09-25T18:14:13.383Z,100067.09
2022-09-25T18:16:42.608Z,100068.75
2022-09-25T18:19:38.908Z,100064.41
2022-09-25T18:22:18.973Z,100063.34
2022-09-25T18:24:47.047Z,100053.03
2022-09-25T18:27:15.572Z,100061.19
2022-09-25T18:29:44.665Z,100066.31
2022-09-25T18:32:11.642Z,100061.19
2022-09-25T18:34:38.136Z,100064.16
2022-09-25T18:37:04.620Z,100062.78
2022-09-25T18:39:31.293Z,100054.09
2022-09-25T18:41:57.778Z,100059.81
2022-09-25T18:44:24.214Z,100059.50
2022-09-25T18:46:51.865Z,100057.91
2022-09-25T18:49:19.255Z,100068.22
2022-09-25T18:51:46.025Z,100062.28
2022-09-25T18:54:14.227Z,100069.03
2022-09-25T18:56:41.641Z,100069.59
2022-09-25T18:59:08.460Z,100069.84
2022-09-25T19:01:35.905Z,100063.84
2022-09-25T19:04:02.682Z,100057.84
2022-09-25T19:06:29.150Z,100053.28
2022-09-25T19:08:57.244Z,100064.63
2022-09-25T19:11:26.038Z,100067.59
2022-09-25T19:13:53.083Z,100057.53
2022-09-25T19:16:20.606Z,100054.53
2022-09-25T19:18:47.244Z,100051.81
2022-09-25T19:21:15.274Z,100051.38
2022-09-25T19:23:43.292Z,100055.31
2022-09-25T19:26:14.975Z,100059.41
2022-09-25T19:28:42.236Z,100058.28
2022-09-25T19:31:14.973Z,100051.00
2022-09-25T19:33:41.687Z,100047.44
2022-09-25T19:36:10.708Z,100032.06
2022-09-25T19:38:38.725Z,100052.34
2022-09-25T19:41:12.252Z,100042.31
2022-09-25T19:43:39.617Z,100036.56
2022-09-25T19:46:06.895Z,100035.25
2022-09-25T19:48:33.697Z,100039.31
2022-09-25T19:51:06.213Z,100030.91
2022-09-25T19:53:33.117Z,100045.47
2022-09-25T19:55:59.889Z,100046.56
2022-09-25T19:58:26.401Z,100048.19
2022-09-25T20:00:54.175Z,100039.75
2022-09-25T20:03:20.693Z,100037.56
2022-09-25T20:05:49.002Z,100031.16
2022-09-25T20:08:15.941Z,100031.00
2022-09-25T20:10:42.522Z,100026.56
2022-09-25T20:13:10.105Z,100019.97
2022-09-25T20:15:36.903Z,100028.41
2022-09-25T20:18:03.508Z,100032.41
2022-09-25T20:20:29.976Z,100026.66
2022-09-25T20:22:57.181Z,100026.94
2022-09-25T20:25:25.028Z,100028.50
2022-09-25T20:27:52.389Z,100023.84
2022-09-25T20:30:19.267Z,100021.38
2022-09-25T20:32:46.055Z,100017.56
2022-09-25T20:35:13.428Z,100013.75
2022-09-25T20:37:40.060Z,100014.81
2022-09-25T20:40:06.601Z,100012.06
2022-09-25T20:42:34.060Z,100008.34
2022-09-25T20:45:00.680Z,100014.28
2022-09-25T20:47:30.288Z,100011.78
2022-09-25T20:49:57.459Z,100009.97
2022-09-25T20:52:23.944Z,100006.69
2022-09-25T20:54:50.489Z,100007.75
2022-09-25T20:57:16.995Z,100000.97
2022-09-25T20:59:43.520Z,100006.69
2022-09-25T21:02:10.487Z,100001.25
2022-09-25T21:04:37.162Z,100002.84
2022-09-25T21:07:03.881Z,100006.63
2022-09-25T21:09:31.285Z,99994.22
2022-09-25T21:11:57.849Z,99995.78
2022-09-25T21:14:27.305Z,99998.75
2022-09-25T21:16:56.383Z,99995.28
2022-09-25T21:19:23.681Z,99995.78
2022-09-25T21:21:50.495Z,99995.78
2022-09-25T21:24:19.819Z,99995.78
2022-09-25T21:26:46.995Z,99988.75
2022-09-25T21:29:16.063Z,99984.69
2022-09-25T21:31:48.408Z,99993.56
2022-09-25T21:34:16.396Z,99994.09
2022-09-25T21:36:43.827Z,99986.50
2022-09-25T21:39:11.004Z,99992.16
2022-09-25T21:41:37.644Z,99992.97
2022-09-25T21:44:05.751Z,99982.13
2022-09-25T21:46:33.663Z,99979.50
2022-09-25T21:49:03.544Z,99972.97
2022-09-25T21:51:36.014Z,99969.69
2022-09-25T21:54:02.861Z,99965.28
2022-09-25T21:56:31.606Z,99967.94
2022-09-25T21:59:00.996Z,99964.13
2022-09-25T22:01:33.535Z,99962.75
2022-09-25T22:04:00.137Z,99965.13
2022-09-25T22:06:33.695Z,99962.47
2022-09-25T22:09:12.360Z,99957.06
2022-09-25T22:11:39.772Z,99950.75
2022-09-25T22:14:09.802Z,99955.06
2022-09-25T22:16:41.350Z,99960.16
2022-09-25T22:19:18.790Z,99944.19
2022-09-25T22:21:47.531Z,99953.91
2022-09-25T22:24:14.580Z,99951.94
2022-09-25T22:26:43.084Z,99947.06
2022-09-25T22:29:10.567Z,99945.38
2022-09-25T22:31:44.346Z,99947.53
2022-09-25T22:34:26.017Z,99939.16
2022-09-25T22:36:58.721Z,99937.72
2022-09-25T22:39:26.564Z,99942.81
2022-09-25T22:41:53.934Z,99938.75
2022-09-25T22:44:20.982Z,99941.44
2022-09-25T22:46:47.617Z,99938.19
2022-09-25T22:49:14.116Z,99938.53
2022-09-25T22:51:40.619Z,99934.47
2022-09-25T22:54:07.402Z,99936.59
2022-09-25T22:56:35.301Z,99939.56
2022-09-25T22:59:05.514Z,99938.50
2022-09-25T23:01:38.971Z,99938.25
